SPF weather

Black Hills Airport-Clyde Ice Field
Spearfish, South Dakota, United States

Public forecast

Using degrees Fahrenheit for public forecast. Weather courtesy of forecast.io.

Current aviation weather report (METAR) for Black Hills Airport-Clyde Ice Field

Retrieved 2020/07/09 17:35 UTC (0 seconds ago):

KSPF 091735Z AUTO VRB04KT 10SM CLR 23/12 A3005 RMK AO2

Closest aviation forecast (TAF) to Black Hills Airport-Clyde Ice Field

Closest forecast is Ellsworth Air Force Base, 35.4 nm (65.6 km) SE. Retrieved 2020/07/09 11:59 UTC (6 hours ago):

TAF KRCA 091100Z 0911/1017 32012KT 9999 SCT080 QNH2995INS BECMG 1005/1006 19010G20KT 9999 FEW130 QNH2998INS BECMG 1014/1015 20015KT 9999 SKC QNH2992INS TX32/0920Z TN17/0911Z